createdAt,value
2023-04-24T00:01:42.391Z,22
2023-04-24T00:06:36.328Z,17
2023-04-24T00:11:36.403Z,22
2023-04-24T00:16:36.381Z,22
2023-04-24T00:21:36.862Z,18
2023-04-24T00:26:36.377Z,22
2023-04-24T00:31:36.661Z,20
2023-04-24T00:36:36.382Z,23
2023-04-24T00:41:36.930Z,23
2023-04-24T00:46:36.963Z,22
2023-04-24T00:51:36.553Z,18
2023-04-24T00:56:36.938Z,22
2023-04-24T01:01:36.961Z,22
2023-04-24T01:06:36.449Z,21
2023-04-24T01:11:36.631Z,22
2023-04-24T01:16:36.464Z,20
2023-04-24T01:21:36.473Z,22
2023-04-24T01:26:36.610Z,21
2023-04-24T01:31:37.033Z,21
2023-04-24T01:36:37.007Z,22
2023-04-24T01:41:36.513Z,19
2023-04-24T01:46:36.691Z,22
2023-04-24T01:51:36.531Z,20
2023-04-24T01:56:36.542Z,20
2023-04-24T02:01:36.780Z,20
2023-04-24T02:06:36.577Z,19
2023-04-24T02:11:36.628Z,23
2023-04-24T02:16:42.099Z,8
2023-04-24T02:21:36.585Z,17
2023-04-24T02:26:36.590Z,22
2023-04-24T02:31:36.653Z,19
2023-04-24T02:36:37.244Z,23
2023-04-24T02:41:36.614Z,18
2023-04-24T02:46:36.628Z,19
2023-04-24T02:51:36.629Z,20
2023-04-24T02:56:37.197Z,23
2023-04-24T03:01:36.737Z,22
2023-04-24T03:06:36.653Z,20
2023-04-24T03:11:36.669Z,22
2023-04-24T03:16:37.282Z,22
2023-04-24T03:21:36.702Z,19
2023-04-24T03:26:36.723Z,22
2023-04-24T03:31:36.737Z,21
2023-04-24T03:36:42.682Z,22
2023-04-24T03:41:36.727Z,19
2023-04-24T03:46:37.440Z,21
2023-04-24T03:51:36.748Z,22
2023-04-24T03:56:43.059Z,17
2023-04-24T04:01:36.753Z,21
2023-04-24T04:06:36.766Z,20
2023-04-24T04:11:36.799Z,6
2023-04-24T04:17:16.510Z,4
2023-04-24T04:21:36.797Z,16
2023-04-24T04:26:36.805Z,20
2023-04-24T04:31:36.816Z,25
2023-04-24T04:36:37.488Z,24
2023-04-24T04:41:37.343Z,21
2023-04-24T04:46:36.853Z,17
2023-04-24T04:51:37.377Z,20
2023-04-24T04:56:37.125Z,24
2023-04-24T05:01:36.963Z,16
2023-04-24T05:06:37.389Z,20
2023-04-24T05:11:36.893Z,23
2023-04-24T05:16:37.581Z,18
2023-04-24T05:21:36.911Z,20
2023-04-24T05:26:36.930Z,23
2023-04-24T05:31:37.503Z,23
2023-04-24T05:36:37.447Z,19
2023-04-24T05:41:37.023Z,19
2023-04-24T05:46:36.965Z,20
2023-04-24T05:51:36.964Z,21
2023-04-24T05:56:36.976Z,17
2023-04-24T06:01:37.002Z,3
2023-04-24T06:06:36.997Z,3
2023-04-24T06:11:37.045Z,2
2023-04-24T06:16:37.045Z,2
2023-04-24T06:21:37.022Z,2
2023-04-24T06:26:37.650Z,3
2023-04-24T06:31:37.730Z,3
2023-04-24T06:36:37.137Z,3
2023-04-24T06:41:37.058Z,3
2023-04-24T06:46:37.480Z,7
2023-04-24T06:51:37.116Z,14
2023-04-24T06:56:37.096Z,24
2023-04-24T07:01:37.140Z,23
2023-04-24T07:06:37.746Z,24
2023-04-24T07:11:42.537Z,21
2023-04-24T07:16:37.277Z,26
2023-04-24T07:21:37.148Z,24
2023-04-24T07:26:37.134Z,27
2023-04-24T07:31:37.753Z,21
2023-04-24T07:36:37.662Z,26
2023-04-24T07:41:37.164Z,20
2023-04-24T07:46:37.814Z,24
2023-04-24T07:51:37.216Z,24
2023-04-24T07:56:37.202Z,26
2023-04-24T08:01:37.203Z,23
2023-04-24T08:06:37.235Z,25
2023-04-24T08:11:42.712Z,24
2023-04-24T08:16:37.803Z,26
2023-04-24T08:21:37.738Z,23
2023-04-24T08:26:37.287Z,25
2023-04-24T08:31:43.360Z,25
2023-04-24T08:36:46.322Z,24
2023-04-24T08:41:37.427Z,25
2023-04-24T08:46:37.842Z,26
2023-04-24T08:51:52.411Z,25
2023-04-24T08:56:37.808Z,25
2023-04-24T09:01:42.650Z,25
2023-04-24T09:06:37.590Z,26
2023-04-24T09:11:37.831Z,26
2023-04-24T09:16:37.956Z,27
2023-04-24T09:21:37.358Z,25
2023-04-24T09:26:37.897Z,29
2023-04-24T09:31:37.400Z,22
2023-04-24T09:36:37.384Z,26
2023-04-24T09:41:37.905Z,27
2023-04-24T09:46:37.666Z,26
2023-04-24T09:51:37.425Z,21
2023-04-24T09:56:37.420Z,23
2023-04-24T10:01:37.447Z,27
2023-04-24T10:06:37.944Z,27
2023-04-24T10:11:37.588Z,28
2023-04-24T10:16:37.456Z,26
2023-04-24T10:21:37.458Z,26
2023-04-24T10:26:37.470Z,26
2023-04-24T10:31:38.055Z,27
2023-04-24T10:36:37.500Z,26
2023-04-24T10:41:37.510Z,27
2023-04-24T10:46:38.473Z,27
2023-04-24T10:51:38.039Z,27
2023-04-24T10:56:37.615Z,26
2023-04-24T11:01:37.552Z,29
2023-04-24T11:06:37.578Z,26
2023-04-24T11:11:37.558Z,28
2023-04-24T11:16:37.574Z,27
2023-04-24T11:21:37.573Z,26
2023-04-24T11:26:38.088Z,26
2023-04-24T11:31:37.654Z,28
2023-04-24T11:36:37.612Z,27
2023-04-24T11:41:38.108Z,28
2023-04-24T11:46:37.682Z,27
2023-04-24T11:51:51.308Z,26
2023-04-24T11:56:37.901Z,25
2023-04-24T12:01:37.665Z,28
2023-04-24T12:06:37.711Z,28
2023-04-24T12:11:38.312Z,28
2023-04-24T12:16:37.859Z,29
2023-04-24T12:21:38.189Z,29
2023-04-24T12:26:37.701Z,26
2023-04-24T12:31:37.750Z,29
2023-04-24T12:36:38.211Z,29
2023-04-24T12:41:38.247Z,29
2023-04-24T12:46:38.278Z,28
2023-04-24T12:51:37.738Z,28
2023-04-24T12:56:38.257Z,29
2023-04-24T13:01:37.784Z,30
2023-04-24T13:06:37.768Z,29
2023-04-24T13:11:37.800Z,28
2023-04-24T13:16:38.418Z,29
2023-04-24T13:21:37.793Z,28
2023-04-24T13:26:38.311Z,29
2023-04-24T13:31:37.839Z,29
2023-04-24T13:36:37.968Z,27
2023-04-24T13:41:37.828Z,28
2023-04-24T13:46:37.966Z,29
2023-04-24T13:51:37.871Z,29
2023-04-24T13:56:38.367Z,29
2023-04-24T14:01:37.918Z,30
2023-04-24T14:06:37.888Z,27
2023-04-24T14:11:37.889Z,28
2023-04-24T14:16:38.024Z,29
2023-04-24T14:21:38.446Z,28
2023-04-24T14:26:38.433Z,29
2023-04-24T14:31:38.499Z,28
2023-04-24T14:36:38.442Z,28
2023-04-24T14:41:38.458Z,28
2023-04-24T14:46:38.525Z,30
2023-04-24T14:51:37.967Z,29
2023-04-24T14:56:37.976Z,28
2023-04-24T15:01:38.524Z,27
2023-04-24T15:06:38.026Z,28
2023-04-24T15:11:38.010Z,29
2023-04-24T15:16:38.604Z,30
2023-04-24T15:21:38.562Z,30
2023-04-24T15:26:38.558Z,28
2023-04-24T15:31:38.232Z,26
2023-04-24T15:36:38.554Z,29
2023-04-24T15:41:38.059Z,28
2023-04-24T15:46:52.602Z,29
2023-04-24T15:51:38.576Z,27
2023-04-24T15:56:38.082Z,28
2023-04-24T16:01:38.241Z,28
2023-04-24T16:06:44.775Z,29
2023-04-24T16:11:38.191Z,29
2023-04-24T16:16:38.187Z,25
2023-04-24T16:21:38.132Z,29
2023-04-24T16:26:38.687Z,27
2023-04-24T16:31:38.721Z,28
2023-04-24T16:36:38.696Z,28
2023-04-24T16:41:38.168Z,25
2023-04-24T16:46:43.552Z,28
2023-04-24T16:51:38.797Z,28
2023-04-24T16:56:38.205Z,28
2023-04-24T17:01:38.747Z,27
2023-04-24T17:06:38.208Z,28
2023-04-24T17:16:38.485Z,29
2023-04-24T17:21:38.758Z,26
2023-04-24T17:26:38.798Z,28
2023-04-24T17:31:38.788Z,28
2023-04-24T17:36:38.645Z,28
2023-04-24T17:41:38.276Z,28
2023-04-24T17:46:38.333Z,30
2023-04-24T17:51:38.796Z,28
2023-04-24T17:56:38.816Z,28
2023-04-24T18:01:38.414Z,28
2023-04-24T18:06:38.352Z,27
2023-04-24T18:11:38.342Z,28
2023-04-24T18:16:38.351Z,27
2023-04-24T18:21:38.361Z,26
2023-04-24T18:26:38.872Z,26
2023-04-24T18:31:38.467Z,29
2023-04-24T18:36:38.900Z,26
2023-04-24T18:41:38.392Z,30
2023-04-24T18:51:46.847Z,27
2023-04-24T18:56:38.429Z,29
2023-04-24T19:01:38.434Z,25
2023-04-24T19:06:38.452Z,26
2023-04-24T19:11:38.453Z,27
2023-04-24T19:16:39.621Z,27
2023-04-24T19:21:38.974Z,28
2023-04-24T19:26:38.991Z,27
2023-04-24T19:31:39.154Z,27
2023-04-24T19:36:44.450Z,29
2023-04-24T19:41:38.516Z,27
2023-04-24T19:46:38.565Z,27
2023-04-24T19:51:38.558Z,27
2023-04-24T19:56:38.561Z,26
2023-04-24T20:01:38.570Z,28
2023-04-24T20:06:38.555Z,28
2023-04-24T20:11:38.584Z,28
2023-04-24T20:16:39.203Z,27
2023-04-24T20:21:39.217Z,27
2023-04-24T20:26:38.617Z,28
2023-04-24T20:31:39.150Z,25
2023-04-24T20:36:38.604Z,28
2023-04-24T20:41:38.615Z,25
2023-04-24T20:46:39.156Z,26
2023-04-24T20:51:38.638Z,27
2023-04-24T20:56:38.964Z,26
2023-04-24T21:01:44.200Z,28
2023-04-24T21:06:38.660Z,25
2023-04-24T21:11:38.911Z,28
2023-04-24T21:16:39.258Z,27
2023-04-24T21:21:39.191Z,27
2023-04-24T21:26:38.692Z,28
2023-04-24T21:31:39.230Z,28
2023-04-24T21:36:38.733Z,22
2023-04-24T21:41:44.087Z,28
2023-04-24T21:46:39.270Z,23
2023-04-24T21:51:39.252Z,27
2023-04-24T21:56:38.774Z,26
2023-04-24T22:01:39.316Z,26
2023-04-24T22:06:38.769Z,28
2023-04-24T22:11:38.781Z,25
2023-04-24T22:16:39.425Z,28
2023-04-24T22:21:39.324Z,28
2023-04-24T22:26:38.820Z,26
2023-04-24T22:31:38.844Z,26
2023-04-24T22:36:38.822Z,26
2023-04-24T22:41:38.873Z,27
2023-04-24T22:46:38.841Z,28
2023-04-24T22:51:38.857Z,24
2023-04-24T22:56:39.466Z,26
2023-04-24T23:01:38.892Z,24
2023-04-24T23:06:39.613Z,26
2023-04-24T23:11:39.499Z,27
2023-04-24T23:16:38.964Z,25
2023-04-24T23:21:38.907Z,26
2023-04-24T23:26:39.050Z,26
2023-04-24T23:31:39.823Z,26
2023-04-24T23:36:38.941Z,26
2023-04-24T23:41:39.551Z,28
2023-04-24T23:46:39.562Z,27
2023-04-24T23:51:39.105Z,27
2023-04-24T23:56:38.980Z,26
